sensor_id;sensor_type;location;lat;lon;timestamp;pressure;altitude;pressure_sealevel;temperature
28905;BMP280;60848;53.884;11.446;2023-03-15T00:01:02;100273.84;;;3.45
28905;BMP280;60848;53.884;11.446;2023-03-15T00:03:31;100267.50;;;3.43
28905;BMP280;60848;53.884;11.446;2023-03-15T00:06:03;100267.84;;;3.41
28905;BMP280;60848;53.884;11.446;2023-03-15T00:08:33;100275.03;;;3.36
28905;BMP280;60848;53.884;11.446;2023-03-15T00:11:02;100283.09;;;3.34
28905;BMP280;60848;53.884;11.446;2023-03-15T00:13:32;100290.53;;;3.36
28905;BMP280;60848;53.884;11.446;2023-03-15T00:16:01;100286.41;;;3.35
28905;BMP280;60848;53.884;11.446;2023-03-15T00:18:30;100289.16;;;3.38
28905;BMP280;60848;53.884;11.446;2023-03-15T00:20:58;100289.75;;;3.35
28905;BMP280;60848;53.884;11.446;2023-03-15T00:23:27;100282.34;;;3.34
28905;BMP280;60848;53.884;11.446;2023-03-15T00:25:57;100297.34;;;3.40
28905;BMP280;60848;53.884;11.446;2023-03-15T00:28:25;100302.97;;;3.42
28905;BMP280;60848;53.884;11.446;2023-03-15T00:31:06;100309.94;;;3.42
28905;BMP280;60848;53.884;11.446;2023-03-15T00:33:37;100317.25;;;3.40
28905;BMP280;60848;53.884;11.446;2023-03-15T00:36:08;100316.16;;;3.41
28905;BMP280;60848;53.884;11.446;2023-03-15T00:38:38;100315.44;;;3.40
28905;BMP280;60848;53.884;11.446;2023-03-15T00:41:07;100327.59;;;3.40
28905;BMP280;60848;53.884;11.446;2023-03-15T00:43:35;100327.25;;;3.41
28905;BMP280;60848;53.884;11.446;2023-03-15T00:46:05;100326.50;;;3.41
28905;BMP280;60848;53.884;11.446;2023-03-15T00:48:34;100338.25;;;3.38
28905;BMP280;60848;53.884;11.446;2023-03-15T00:51:06;100343.09;;;3.40
28905;BMP280;60848;53.884;11.446;2023-03-15T00:53:35;100358.28;;;3.41
28905;BMP280;60848;53.884;11.446;2023-03-15T00:56:04;100350.00;;;3.48
28905;BMP280;60848;53.884;11.446;2023-03-15T00:58:33;100363.00;;;3.60
28905;BMP280;60848;53.884;11.446;2023-03-15T01:01:05;100366.91;;;3.66
28905;BMP280;60848;53.884;11.446;2023-03-15T01:03:34;100373.28;;;3.69
28905;BMP280;60848;53.884;11.446;2023-03-15T01:06:07;100371.31;;;3.65
28905;BMP280;60848;53.884;11.446;2023-03-15T01:08:35;100378.19;;;3.61
28905;BMP280;60848;53.884;11.446;2023-03-15T01:11:07;100382.16;;;3.59
28905;BMP280;60848;53.884;11.446;2023-03-15T01:13:39;100383.34;;;3.61
28905;BMP280;60848;53.884;11.446;2023-03-15T01:16:10;100384.72;;;3.59
28905;BMP280;60848;53.884;11.446;2023-03-15T01:18:39;100383.69;;;3.60
28905;BMP280;60848;53.884;11.446;2023-03-15T01:21:10;100388.72;;;3.56
28905;BMP280;60848;53.884;11.446;2023-03-15T01:23:40;100393.13;;;3.56
28905;BMP280;60848;53.884;11.446;2023-03-15T01:26:11;100392.03;;;3.57
28905;BMP280;60848;53.884;11.446;2023-03-15T01:28:41;100399.34;;;3.55
28905;BMP280;60848;53.884;11.446;2023-03-15T01:31:13;100401.66;;;3.56
28905;BMP280;60848;53.884;11.446;2023-03-15T01:33:44;100410.47;;;3.55
28905;BMP280;60848;53.884;11.446;2023-03-15T01:36:12;100407.44;;;3.53
28905;BMP280;60848;53.884;11.446;2023-03-15T01:38:41;100414.88;;;3.55
28905;BMP280;60848;53.884;11.446;2023-03-15T01:41:10;100411.84;;;3.53
28905;BMP280;60848;53.884;11.446;2023-03-15T01:43:39;100417.31;;;3.51
28905;BMP280;60848;53.884;11.446;2023-03-15T01:46:27;100416.13;;;3.49
28905;BMP280;60848;53.884;11.446;2023-03-15T01:48:58;100422.81;;;3.50
28905;BMP280;60848;53.884;11.446;2023-03-15T01:51:32;100429.03;;;3.49
28905;BMP280;60848;53.884;11.446;2023-03-15T01:54:05;100433.16;;;3.50
28905;BMP280;60848;53.884;11.446;2023-03-15T01:56:35;100433.03;;;3.46
28905;BMP280;60848;53.884;11.446;2023-03-15T01:59:06;100439.59;;;3.44
28905;BMP280;60848;53.884;11.446;2023-03-15T02:01:36;100449.47;;;3.42
28905;BMP280;60848;53.884;11.446;2023-03-15T02:04:12;100444.63;;;3.40
28905;BMP280;60848;53.884;11.446;2023-03-15T02:06:42;100444.91;;;3.39
28905;BMP280;60848;53.884;11.446;2023-03-15T02:09:16;100449.63;;;3.37
28905;BMP280;60848;53.884;11.446;2023-03-15T02:11:45;100451.03;;;3.34
28905;BMP280;60848;53.884;11.446;2023-03-15T02:14:13;100449.50;;;3.33
28905;BMP280;60848;53.884;11.446;2023-03-15T02:16:43;100454.69;;;3.33
28905;BMP280;60848;53.884;11.446;2023-03-15T02:19:20;100472.78;;;3.33
28905;BMP280;60848;53.884;11.446;2023-03-15T02:21:55;100476.13;;;3.34
28905;BMP280;60848;53.884;11.446;2023-03-15T02:24:31;100480.84;;;3.32
28905;BMP280;60848;53.884;11.446;2023-03-15T02:27:02;100489.06;;;3.25
28905;BMP280;60848;53.884;11.446;2023-03-15T02:29:32;100492.91;;;3.19
28905;BMP280;60848;53.884;11.446;2023-03-15T02:32:00;100484.03;;;3.20
28905;BMP280;60848;53.884;11.446;2023-03-15T02:34:30;100489.41;;;3.15
28905;BMP280;60848;53.884;11.446;2023-03-15T02:36:58;100489.41;;;3.15
28905;BMP280;60848;53.884;11.446;2023-03-15T02:39:28;100495.97;;;3.13
28905;BMP280;60848;53.884;11.446;2023-03-15T02:41:57;100492.31;;;3.14
28905;BMP280;60848;53.884;11.446;2023-03-15T02:44:27;100494.44;;;3.12
28905;BMP280;60848;53.884;11.446;2023-03-15T02:46:59;100497.78;;;3.12
28905;BMP280;60848;53.884;11.446;2023-03-15T02:49:31;100504.78;;;3.12
28905;BMP280;60848;53.884;11.446;2023-03-15T02:52:01;100509.94;;;3.12
28905;BMP280;60848;53.884;11.446;2023-03-15T02:54:29;100509.19;;;3.11
28905;BMP280;60848;53.884;11.446;2023-03-15T02:57:00;100519.97;;;3.13
28905;BMP280;60848;53.884;11.446;2023-03-15T02:59:28;100521.47;;;3.14
28905;BMP280;60848;53.884;11.446;2023-03-15T03:01:58;100537.72;;;3.15
28905;BMP280;60848;53.884;11.446;2023-03-15T03:04:26;100549.88;;;3.14
28905;BMP280;60848;53.884;11.446;2023-03-15T03:06:55;100547.47;;;3.09
28905;BMP280;60848;53.884;11.446;2023-03-15T03:09:23;100556.59;;;3.07
28905;BMP280;60848;53.884;11.446;2023-03-15T03:11:52;100560.84;;;3.03
28905;BMP280;60848;53.884;11.446;2023-03-15T03:14:20;100575.44;;;2.99
28905;BMP280;60848;53.884;11.446;2023-03-15T03:16:51;100576.78;;;2.96
28905;BMP280;60848;53.884;11.446;2023-03-15T03:19:21;100588.22;;;2.95
28905;BMP280;60848;53.884;11.446;2023-03-15T03:21:51;100582.72;;;2.97
28905;BMP280;60848;53.884;11.446;2023-03-15T03:24:20;100583.63;;;2.92
28905;BMP280;60848;53.884;11.446;2023-03-15T03:26:51;100558.72;;;2.96
28905;BMP280;60848;53.884;11.446;2023-03-15T03:29:24;100550.22;;;2.96
28905;BMP280;60848;53.884;11.446;2023-03-15T03:31:52;100556.34;;;2.91
28905;BMP280;60848;53.884;11.446;2023-03-15T03:34:22;100554.22;;;2.85
28905;BMP280;60848;53.884;11.446;2023-03-15T03:36:50;100560.28;;;2.80
28905;BMP280;60848;53.884;11.446;2023-03-15T03:39:19;100575.94;;;2.75
28905;BMP280;60848;53.884;11.446;2023-03-15T03:41:47;100571.38;;;2.72
28905;BMP280;60848;53.884;11.446;2023-03-15T03:44:15;100572.44;;;2.71
28905;BMP280;60848;53.884;11.446;2023-03-15T03:46:44;100584.59;;;2.70
28905;BMP280;60848;53.884;11.446;2023-03-15T03:49:12;100590.81;;;2.69
28905;BMP280;60848;53.884;11.446;2023-03-15T03:51:42;100593.09;;;2.71
28905;BMP280;60848;53.884;11.446;2023-03-15T03:54:10;100594.91;;;2.70
28905;BMP280;60848;53.884;11.446;2023-03-15T03:56:38;100606.00;;;2.71
28905;BMP280;60848;53.884;11.446;2023-03-15T03:59:07;100608.28;;;2.72
28905;BMP280;60848;53.884;11.446;2023-03-15T04:01:36;100609.81;;;2.74
28905;BMP280;60848;53.884;11.446;2023-03-15T04:04:04;100615.44;;;2.76
28905;BMP280;60848;53.884;11.446;2023-03-15T04:06:33;100618.75;;;2.76
28905;BMP280;60848;53.884;11.446;2023-03-15T04:09:03;100629.53;;;2.78
28905;BMP280;60848;53.884;11.446;2023-03-15T04:11:34;100641.38;;;2.79
28905;BMP280;60848;53.884;11.446;2023-03-15T04:14:02;100652.94;;;2.82
28905;BMP280;60848;53.884;11.446;2023-03-15T04:16:30;100647.16;;;2.85
28905;BMP280;60848;53.884;11.446;2023-03-15T04:18:59;100658.72;;;2.87
28905;BMP280;60848;53.884;11.446;2023-03-15T04:21:27;100654.78;;;2.90
28905;BMP280;60848;53.884;11.446;2023-03-15T04:24:00;100661.75;;;2.89
28905;BMP280;60848;53.884;11.446;2023-03-15T04:26:30;100662.94;;;2.92
28905;BMP280;60848;53.884;11.446;2023-03-15T04:28:58;100670.25;;;2.90
28905;BMP280;60848;53.884;11.446;2023-03-15T04:31:26;100677.34;;;2.93
28905;BMP280;60848;53.884;11.446;2023-03-15T04:33:55;100677.03;;;2.94
28905;BMP280;60848;53.884;11.446;2023-03-15T04:36:23;100675.69;;;2.97
28905;BMP280;60848;53.884;11.446;2023-03-15T04:38:51;100679.03;;;2.97
28905;BMP280;60848;53.884;11.446;2023-03-15T04:41:31;100671.28;;;2.97
28905;BMP280;60848;53.884;11.446;2023-03-15T04:44:01;100671.75;;;2.99
28905;BMP280;60848;53.884;11.446;2023-03-15T04:46:31;100677.69;;;3.00
28905;BMP280;60848;53.884;11.446;2023-03-15T04:49:00;100667.34;;;3.00
28905;BMP280;60848;53.884;11.446;2023-03-15T04:51:31;100672.81;;;2.98
28905;BMP280;60848;53.884;11.446;2023-03-15T04:54:00;100674.78;;;2.93
28905;BMP280;60848;53.884;11.446;2023-03-15T04:56:32;100679.81;;;2.89
28905;BMP280;60848;53.884;11.446;2023-03-15T04:59:03;100674.50;;;2.86
28905;BMP280;60848;53.884;11.446;2023-03-15T05:01:32;100675.09;;;2.83
28905;BMP280;60848;53.884;11.446;2023-03-15T05:04:00;100684.97;;;2.81
28905;BMP280;60848;53.884;11.446;2023-03-15T05:06:28;100681.16;;;2.78
28905;BMP280;60848;53.884;11.446;2023-03-15T05:08:57;100680.69;;;2.76
28905;BMP280;60848;53.884;11.446;2023-03-15T05:11:25;100687.25;;;2.74
28905;BMP280;60848;53.884;11.446;2023-03-15T05:13:55;100696.03;;;2.72
28905;BMP280;60848;53.884;11.446;2023-03-15T05:16:23;100703.16;;;2.67
28905;BMP280;60848;53.884;11.446;2023-03-15T05:18:51;100709.69;;;2.64
28905;BMP280;60848;53.884;11.446;2023-03-15T05:21:19;100711.03;;;2.62
28905;BMP280;60848;53.884;11.446;2023-03-15T05:23:48;100713.19;;;2.60
28905;BMP280;60848;53.884;11.446;2023-03-15T05:26:16;100706.06;;;2.57
28905;BMP280;60848;53.884;11.446;2023-03-15T05:28:44;100696.50;;;2.57
28905;BMP280;60848;53.884;11.446;2023-03-15T05:31:14;100694.38;;;2.59
28905;BMP280;60848;53.884;11.446;2023-03-15T05:33:42;100696.19;;;2.59
28905;BMP280;60848;53.884;11.446;2023-03-15T05:36:13;100701.66;;;2.57
28905;BMP280;60848;53.884;11.446;2023-03-15T05:38:43;100703.47;;;2.57
28905;BMP280;60848;53.884;11.446;2023-03-15T05:41:11;100703.28;;;2.53
28905;BMP280;60848;53.884;11.446;2023-03-15T05:43:44;100720.00;;;2.56
28905;BMP280;60848;53.884;11.446;2023-03-15T05:46:15;100717.16;;;2.57
28905;BMP280;60848;53.884;11.446;2023-03-15T05:48:44;100725.00;;;2.52
28905;BMP280;60848;53.884;11.446;2023-03-15T05:51:12;100727.28;;;2.54
28905;BMP280;60848;53.884;11.446;2023-03-15T05:53:43;100739.59;;;2.57
28905;BMP280;60848;53.884;11.446;2023-03-15T05:56:15;100745.22;;;2.59
28905;BMP280;60848;53.884;11.446;2023-03-15T05:58:45;100749.75;;;2.62
28905;BMP280;60848;53.884;11.446;2023-03-15T06:01:15;100749.47;;;2.63
28905;BMP280;60848;53.884;11.446;2023-03-15T06:03:43;100748.09;;;2.66
28905;BMP280;60848;53.884;11.446;2023-03-15T06:06:11;100759.66;;;2.68
28905;BMP280;60848;53.884;11.446;2023-03-15T06:08:40;100761.19;;;2.69
28905;BMP280;60848;53.884;11.446;2023-03-15T06:11:08;100758.44;;;2.75
28905;BMP280;60848;53.884;11.446;2023-03-15T06:13:36;100767.44;;;2.77
28905;BMP280;60848;53.884;11.446;2023-03-15T06:16:05;100771.97;;;2.80
28905;BMP280;60848;53.884;11.446;2023-03-15T06:18:34;100775.63;;;2.79
28905;BMP280;60848;53.884;11.446;2023-03-15T06:21:03;100782.03;;;2.82
28905;BMP280;60848;53.884;11.446;2023-03-15T06:23:33;100794.22;;;2.90
28905;BMP280;60848;53.884;11.446;2023-03-15T06:26:01;100797.75;;;3.19
28905;BMP280;60848;53.884;11.446;2023-03-15T06:28:29;100807.94;;;3.58
28905;BMP280;60848;53.884;11.446;2023-03-15T06:30:59;100821.41;;;3.98
28905;BMP280;60848;53.884;11.446;2023-03-15T06:33:31;100822.19;;;4.45
28905;BMP280;60848;53.884;11.446;2023-03-15T06:36:00;100835.28;;;4.78
28905;BMP280;60848;53.884;11.446;2023-03-15T06:38:29;100837.03;;;5.15
28905;BMP280;60848;53.884;11.446;2023-03-15T06:40:58;100839.38;;;5.49
28905;BMP280;60848;53.884;11.446;2023-03-15T06:43:27;100841.84;;;5.57
28905;BMP280;60848;53.884;11.446;2023-03-15T06:45:56;100845.53;;;5.56
28905;BMP280;60848;53.884;11.446;2023-03-15T06:48:26;100850.84;;;5.39
28905;BMP280;60848;53.884;11.446;2023-03-15T06:50:54;100859.13;;;5.21
28905;BMP280;60848;53.884;11.446;2023-03-15T06:53:26;100865.44;;;5.03
28905;BMP280;60848;53.884;11.446;2023-03-15T06:55:56;100872.69;;;4.89
28905;BMP280;60848;53.884;11.446;2023-03-15T06:58:26;100881.13;;;4.77
28905;BMP280;60848;53.884;11.446;2023-03-15T07:00:54;100880.91;;;4.61
28905;BMP280;60848;53.884;11.446;2023-03-15T07:03:23;100883.19;;;4.54
28905;BMP280;60848;53.884;11.446;2023-03-15T07:05:51;100889.59;;;4.57
28905;BMP280;60848;53.884;11.446;2023-03-15T07:08:20;100893.81;;;4.70
28905;BMP280;60848;53.884;11.446;2023-03-15T07:10:50;100886.59;;;4.84
28905;BMP280;60848;53.884;11.446;2023-03-15T07:13:19;100888.50;;;4.96
28905;BMP280;60848;53.884;11.446;2023-03-15T07:15:50;100886.75;;;5.08
28905;BMP280;60848;53.884;11.446;2023-03-15T07:18:19;100896.88;;;5.22
28905;BMP280;60848;53.884;11.446;2023-03-15T07:20:54;100889.91;;;5.43
28905;BMP280;60848;53.884;11.446;2023-03-15T07:23:23;100890.97;;;5.62
28905;BMP280;60848;53.884;11.446;2023-03-15T07:25:54;100895.22;;;6.00
28905;BMP280;60848;53.884;11.446;2023-03-15T07:28:24;100896.22;;;6.19
28905;BMP280;60848;53.884;11.446;2023-03-15T07:30:53;100903.72;;;6.33
28905;BMP280;60848;53.884;11.446;2023-03-15T07:33:23;100906.66;;;6.55
28905;BMP280;60848;53.884;11.446;2023-03-15T07:35:52;100916.84;;;6.84
28905;BMP280;60848;53.884;11.446;2023-03-15T07:38:21;100918.22;;;7.06
28905;BMP280;60848;53.884;11.446;2023-03-15T07:40:49;100923.59;;;7.37
28905;BMP280;60848;53.884;11.446;2023-03-15T07:43:19;100921.94;;;7.72
28905;BMP280;60848;53.884;11.446;2023-03-15T07:45:47;100923.00;;;7.99
28905;BMP280;60848;53.884;11.446;2023-03-15T07:48:16;100927.31;;;8.23
28905;BMP280;60848;53.884;11.446;2023-03-15T07:50:45;100938.00;;;8.49
28905;BMP280;60848;53.884;11.446;2023-03-15T07:53:13;100948.91;;;8.70
28905;BMP280;60848;53.884;11.446;2023-03-15T07:55:41;100955.44;;;8.95
28905;BMP280;60848;53.884;11.446;2023-03-15T07:58:10;100950.88;;;9.26
28905;BMP280;60848;53.884;11.446;2023-03-15T08:00:40;100959.72;;;9.60
28905;BMP280;60848;53.884;11.446;2023-03-15T08:03:08;100961.75;;;9.89
28905;BMP280;60848;53.884;11.446;2023-03-15T08:05:37;100967.34;;;10.10
28905;BMP280;60848;53.884;11.446;2023-03-15T08:08:05;100968.84;;;10.11
28905;BMP280;60848;53.884;11.446;2023-03-15T08:10:34;100968.41;;;9.87
28905;BMP280;60848;53.884;11.446;2023-03-15T08:13:02;100973.19;;;9.62
28905;BMP280;60848;53.884;11.446;2023-03-15T08:15:30;100975.34;;;9.38
28905;BMP280;60848;53.884;11.446;2023-03-15T08:18:00;100978.19;;;9.13
28905;BMP280;60848;53.884;11.446;2023-03-15T08:20:31;100988.81;;;8.89
28905;BMP280;60848;53.884;11.446;2023-03-15T08:23:00;100987.66;;;8.71
28905;BMP280;60848;53.884;11.446;2023-03-15T08:25:28;100991.38;;;8.55
28905;BMP280;60848;53.884;11.446;2023-03-15T08:27:57;100999.03;;;8.48
28905;BMP280;60848;53.884;11.446;2023-03-15T08:30:25;100998.53;;;8.58
28905;BMP280;60848;53.884;11.446;2023-03-15T08:32:53;101001.81;;;8.70
28905;BMP280;60848;53.884;11.446;2023-03-15T08:35:23;100999.59;;;8.88
28905;BMP280;60848;53.884;11.446;2023-03-15T08:37:51;100997.41;;;9.05
28905;BMP280;60848;53.884;11.446;2023-03-15T08:40:20;101004.78;;;9.19
28905;BMP280;60848;53.884;11.446;2023-03-15T08:42:52;101007.09;;;9.24
28905;BMP280;60848;53.884;11.446;2023-03-15T08:45:21;101015.03;;;9.27
28905;BMP280;60848;53.884;11.446;2023-03-15T08:47:52;101023.59;;;9.28
28905;BMP280;60848;53.884;11.446;2023-03-15T08:50:22;101019.06;;;9.25
28905;BMP280;60848;53.884;11.446;2023-03-15T08:52:51;101027.84;;;9.17
28905;BMP280;60848;53.884;11.446;2023-03-15T08:55:20;101033.28;;;9.12
28905;BMP280;60848;53.884;11.446;2023-03-15T08:57:48;101037.66;;;9.23
28905;BMP280;60848;53.884;11.446;2023-03-15T09:00:17;101046.81;;;9.33
28905;BMP280;60848;53.884;11.446;2023-03-15T09:02:49;101057.69;;;9.35
28905;BMP280;60848;53.884;11.446;2023-03-15T09:05:19;101059.41;;;9.47
28905;BMP280;60848;53.884;11.446;2023-03-15T09:07:49;101062.06;;;9.66
28905;BMP280;60848;53.884;11.446;2023-03-15T09:10:19;101056.00;;;9.81
28905;BMP280;60848;53.884;11.446;2023-03-15T09:12:49;101059.00;;;9.83
28905;BMP280;60848;53.884;11.446;2023-03-15T09:15:19;101051.19;;;10.02
28905;BMP280;60848;53.884;11.446;2023-03-15T09:17:48;101062.88;;;10.08
28905;BMP280;60848;53.884;11.446;2023-03-15T09:20:17;101062.50;;;10.09
28905;BMP280;60848;53.884;11.446;2023-03-15T09:22:51;101060.84;;;10.01
28905;BMP280;60848;53.884;11.446;2023-03-15T09:25:20;101058.56;;;9.96
28905;BMP280;60848;53.884;11.446;2023-03-15T09:27:49;101069.66;;;9.93
28905;BMP280;60848;53.884;11.446;2023-03-15T09:30:17;101074.13;;;9.93
28905;BMP280;60848;53.884;11.446;2023-03-15T09:32:46;101086.06;;;9.90
28905;BMP280;60848;53.884;11.446;2023-03-15T09:35:15;101078.97;;;9.91
28905;BMP280;60848;53.884;11.446;2023-03-15T09:37:44;101079.34;;;9.93
28905;BMP280;60848;53.884;11.446;2023-03-15T09:40:17;101083.72;;;10.04
28905;BMP280;60848;53.884;11.446;2023-03-15T09:42:54;101081.88;;;10.27
28905;BMP280;60848;53.884;11.446;2023-03-15T09:45:26;101088.97;;;10.49
28905;BMP280;60848;53.884;11.446;2023-03-15T09:47:59;101082.84;;;10.61
28905;BMP280;60848;53.884;11.446;2023-03-15T09:50:33;101088.78;;;10.81
28905;BMP280;60848;53.884;11.446;2023-03-15T09:53:03;101097.88;;;10.90
28905;BMP280;60848;53.884;11.446;2023-03-15T09:55:35;101098.88;;;11.08
28905;BMP280;60848;53.884;11.446;2023-03-15T09:58:04;101096.63;;;11.33
28905;BMP280;60848;53.884;11.446;2023-03-15T10:00:39;101093.94;;;11.55
28905;BMP280;60848;53.884;11.446;2023-03-15T10:03:11;101090.69;;;11.65
28905;BMP280;60848;53.884;11.446;2023-03-15T10:05:44;101097.59;;;11.80
28905;BMP280;60848;53.884;11.446;2023-03-15T10:08:16;101101.09;;;11.91
28905;BMP280;60848;53.884;11.446;2023-03-15T10:10:49;101108.66;;;11.96
28905;BMP280;60848;53.884;11.446;2023-03-15T10:13:28;101102.78;;;12.06
28905;BMP280;60848;53.884;11.446;2023-03-15T10:16:02;101100.97;;;12.17
28905;BMP280;60848;53.884;11.446;2023-03-15T10:18:49;101108.94;;;12.28
28905;BMP280;60848;53.884;11.446;2023-03-15T10:21:28;101109.44;;;12.37
28905;BMP280;60848;53.884;11.446;2023-03-15T10:23:58;101108.69;;;12.40
28905;BMP280;60848;53.884;11.446;2023-03-15T10:26:30;101097.41;;;12.33
28905;BMP280;60848;53.884;11.446;2023-03-15T10:29:00;101109.22;;;12.16
28905;BMP280;60848;53.884;11.446;2023-03-15T10:31:32;101112.63;;;11.87
28905;BMP280;60848;53.884;11.446;2023-03-15T10:34:15;101119.28;;;11.48
28905;BMP280;60848;53.884;11.446;2023-03-15T10:36:47;101116.78;;;11.03
28905;BMP280;60848;53.884;11.446;2023-03-15T10:39:21;101122.59;;;10.70
28905;BMP280;60848;53.884;11.446;2023-03-15T10:41:51;101122.75;;;10.58
28905;BMP280;60848;53.884;11.446;2023-03-15T10:44:22;101125.97;;;10.70
28905;BMP280;60848;53.884;11.446;2023-03-15T10:47:02;101121.06;;;10.92
28905;BMP280;60848;53.884;11.446;2023-03-15T10:49:48;101122.38;;;11.05
28905;BMP280;60848;53.884;11.446;2023-03-15T10:52:32;101112.53;;;11.21
28905;BMP280;60848;53.884;11.446;2023-03-15T10:55:05;101118.69;;;11.32
28905;BMP280;60848;53.884;11.446;2023-03-15T10:57:37;101121.41;;;11.42
28905;BMP280;60848;53.884;11.446;2023-03-15T11:00:25;101128.66;;;11.52
28905;BMP280;60848;53.884;11.446;2023-03-15T11:03:03;101115.28;;;11.57
28905;BMP280;60848;53.884;11.446;2023-03-15T11:05:37;101110.69;;;11.51
28905;BMP280;60848;53.884;11.446;2023-03-15T11:08:14;101119.78;;;11.57
28905;BMP280;60848;53.884;11.446;2023-03-15T11:10:43;101129.44;;;11.53
28905;BMP280;60848;53.884;11.446;2023-03-15T11:13:17;101131.56;;;11.44
28905;BMP280;60848;53.884;11.446;2023-03-15T11:15:54;101129.91;;;11.32
28905;BMP280;60848;53.884;11.446;2023-03-15T11:18:26;101130.41;;;11.15
28905;BMP280;60848;53.884;11.446;2023-03-15T11:20:55;101133.88;;;10.97
28905;BMP280;60848;53.884;11.446;2023-03-15T11:23:26;101137.66;;;10.77
28905;BMP280;60848;53.884;11.446;2023-03-15T11:25:55;101148.22;;;10.61
28905;BMP280;60848;53.884;11.446;2023-03-15T11:28:27;101140.06;;;10.66
28905;BMP280;60848;53.884;11.446;2023-03-15T11:30:57;101144.94;;;10.67
28905;BMP280;60848;53.884;11.446;2023-03-15T11:33:32;101152.16;;;10.74
28905;BMP280;60848;53.884;11.446;2023-03-15T11:36:06;101142.94;;;10.80
28905;BMP280;60848;53.884;11.446;2023-03-15T11:38:39;101138.22;;;10.89
28905;BMP280;60848;53.884;11.446;2023-03-15T11:41:17;101138.84;;;11.05
28905;BMP280;60848;53.884;11.446;2023-03-15T11:43:54;101136.91;;;11.25
28905;BMP280;60848;53.884;11.446;2023-03-15T11:46:26;101129.50;;;11.30
28905;BMP280;60848;53.884;11.446;2023-03-15T11:49:00;101138.63;;;11.40
28905;BMP280;60848;53.884;11.446;2023-03-15T11:51:31;101139.84;;;11.49
28905;BMP280;60848;53.884;11.446;2023-03-15T11:54:12;101135.78;;;11.52
28905;BMP280;60848;53.884;11.446;2023-03-15T11:56:54;101142.94;;;11.55
28905;BMP280;60848;53.884;11.446;2023-03-15T11:59:29;101134.66;;;11.53
28905;BMP280;60848;53.884;11.446;2023-03-15T12:01:59;101140.03;;;11.60
28905;BMP280;60848;53.884;11.446;2023-03-15T12:04:40;101143.41;;;11.60
28905;BMP280;60848;53.884;11.446;2023-03-15T12:07:35;101142.28;;;11.61
28905;BMP280;60848;53.884;11.446;2023-03-15T12:10:33;101136.31;;;11.64
28905;BMP280;60848;53.884;11.446;2023-03-15T12:13:18;101138.25;;;11.67
28905;BMP280;60848;53.884;11.446;2023-03-15T12:15:49;101133.34;;;11.66
28905;BMP280;60848;53.884;11.446;2023-03-15T12:18:29;101134.84;;;11.67
28905;BMP280;60848;53.884;11.446;2023-03-15T12:21:16;101138.28;;;11.71
28905;BMP280;60848;53.884;11.446;2023-03-15T12:23:55;101144.19;;;11.64
28905;BMP280;60848;53.884;11.446;2023-03-15T12:26:30;101152.94;;;11.49
28905;BMP280;60848;53.884;11.446;2023-03-15T12:29:06;101152.63;;;11.25
28905;BMP280;60848;53.884;11.446;2023-03-15T12:31:45;101154.81;;;11.23
28905;BMP280;60848;53.884;11.446;2023-03-15T12:34:22;101155.28;;;11.54
28905;BMP280;60848;53.884;11.446;2023-03-15T12:36:52;101158.13;;;11.72
28905;BMP280;60848;53.884;11.446;2023-03-15T12:39:36;101170.78;;;11.96
28905;BMP280;60848;53.884;11.446;2023-03-15T12:42:04;101165.53;;;11.92
28905;BMP280;60848;53.884;11.446;2023-03-15T12:44:38;101181.00;;;12.04
28905;BMP280;60848;53.884;11.446;2023-03-15T12:47:08;101174.00;;;12.15
28905;BMP280;60848;53.884;11.446;2023-03-15T12:49:39;101178.72;;;12.36
28905;BMP280;60848;53.884;11.446;2023-03-15T12:52:27;101179.34;;;12.59
28905;BMP280;60848;53.884;11.446;2023-03-15T12:55:02;101172.78;;;12.83
28905;BMP280;60848;53.884;11.446;2023-03-15T12:57:36;101162.88;;;13.13
28905;BMP280;60848;53.884;11.446;2023-03-15T13:00:11;101155.41;;;13.18
28905;BMP280;60848;53.884;11.446;2023-03-15T13:02:45;101149.44;;;13.28
28905;BMP280;60848;53.884;11.446;2023-03-15T13:05:21;101152.75;;;13.11
28905;BMP280;60848;53.884;11.446;2023-03-15T13:07:55;101156.31;;;12.89
28905;BMP280;60848;53.884;11.446;2023-03-15T13:10:50;101155.00;;;12.66
28905;BMP280;60848;53.884;11.446;2023-03-15T13:13:40;101155.53;;;12.42
28905;BMP280;60848;53.884;11.446;2023-03-15T13:16:23;101156.31;;;12.09
28905;BMP280;60848;53.884;11.446;2023-03-15T13:18:58;101197.13;;;11.77
28905;BMP280;60848;53.884;11.446;2023-03-15T13:21:33;101214.69;;;11.24
28905;BMP280;60848;53.884;11.446;2023-03-15T13:24:03;101203.31;;;10.71
28905;BMP280;60848;53.884;11.446;2023-03-15T13:26:41;101203.41;;;10.18
28905;BMP280;60848;53.884;11.446;2023-03-15T13:29:15;101200.81;;;9.83
28905;BMP280;60848;53.884;11.446;2023-03-15T13:31:45;101204.97;;;9.69
28905;BMP280;60848;53.884;11.446;2023-03-15T13:34:18;101205.41;;;9.71
28905;BMP280;60848;53.884;11.446;2023-03-15T13:36:52;101202.94;;;9.78
28905;BMP280;60848;53.884;11.446;2023-03-15T13:39:24;101200.72;;;9.95
28905;BMP280;60848;53.884;11.446;2023-03-15T13:41:57;101201.06;;;10.13
28905;BMP280;60848;53.884;11.446;2023-03-15T13:44:27;101207.34;;;10.27
28905;BMP280;60848;53.884;11.446;2023-03-15T13:46:56;101199.72;;;10.38
28905;BMP280;60848;53.884;11.446;2023-03-15T13:49:31;101205.00;;;10.41
28905;BMP280;60848;53.884;11.446;2023-03-15T13:52:01;101196.03;;;10.39
28905;BMP280;60848;53.884;11.446;2023-03-15T13:54:32;101200.03;;;10.33
28905;BMP280;60848;53.884;11.446;2023-03-15T13:57:02;101206.16;;;10.25
28905;BMP280;60848;53.884;11.446;2023-03-15T13:59:37;101214.00;;;10.25
28905;BMP280;60848;53.884;11.446;2023-03-15T14:02:12;101206.91;;;10.25
28905;BMP280;60848;53.884;11.446;2023-03-15T14:04:44;101221.72;;;10.18
28905;BMP280;60848;53.884;11.446;2023-03-15T14:07:32;101220.28;;;10.20
28905;BMP280;60848;53.884;11.446;2023-03-15T14:10:07;101220.41;;;10.08
28905;BMP280;60848;53.884;11.446;2023-03-15T14:12:41;101223.28;;;10.03
28905;BMP280;60848;53.884;11.446;2023-03-15T14:15:14;101224.22;;;9.95